Terminal Aerodrome Forecast
Issued by NWS Bismarck, ND

Home | Current Version | Previous Version | Text Only | Print | Product List | Glossary Off
Versions: 1 2 3 4 5 6 7 8 9 10 11 12 13 14 15 16 17 18 19 20

000
FTUS43 KBIS 302300
TAFISN
TAF
KISN 302320Z 0100/0124 VRB05KT 4SM SHRA OVC012
     FM010500 28007KT 5SM -SHRA SCT008 OVC015
     FM010900 29012KT P6SM BKN015 OVC040
     FM011800 29015KT P6SM BKN040=

USA.gov is the U.S. government's official web portal to all federal, state and local government web resources and services.